Terminal Aerodrome Forecast
Issued by NWS

Home | Current Version | Previous Version | Text Only | Print | Product List | Glossary On
Versions: 1 2 3 4 5 6 7 8 9 10 11 12 13 14 15 16 17 18 19
000
FTAK31 PAJN 291200 AAA
TAFAKT
TAF AMD
PAKT 291214Z 2912/3012 14013G21KT 6SM -SHRA BKN020 OVC040
      WS020/16040KT
      TEMPO 2912/2916 14018G25KT 4SM -SHRA BR SCT010 BKN015 OVC030
     FM291800 14011G21KT 5SM -SHRA BR SCT015 OVC030
      TEMPO 2918/2922 TS OVC030CB
     FM292200 14008G18KT 5SM -SHRA BR OVC030 PROB30 2922/3004 TS
      OVC030CB
     FM300600 14008KT 6SM -SHRA OVC030 PROB30 3006/3010 TS OVC030CB
      AMD LTD TO CLD VIS AND WIND 2912/2915=

USA.gov is the U.S. government's official web portal to all federal, state and local government web resources and services.